Time;durP1;ratioP1;P1;durP2;ratioP2;P2;SDS_P1;SDS_P2;PMS_P1;PMS_P2;Temp;Humidity;BMP_temperature;BMP_pressure;BME280_temperature;BME280_humidity;BME280_pressure;Samples;Min_cycle;Max_cycle;Signal;HPM_P1;HPM_P2
2022/05/12 00:00:28;;;;;;;;;4.33;3.33;;;;;20.38;50.75;101232.13;4999551;28;45508;-68
2022/05/12 00:02:53;;;;;;;;;2.00;2.00;;;;;20.29;50.94;101223.38;4999913;28;45308;-69
2022/05/12 00:05:21;;;;;;;;;1.67;1.00;;;;;20.33;50.91;101230.88;4981413;28;48627;-69
2022/05/12 00:07:47;;;;;;;;;5.00;4.00;;;;;20.21;51.09;101221.63;4999087;28;45382;-69
2022/05/12 00:10:16;;;;;;;;;1.33;1.33;;;;;20.11;51.12;101209.50;4998118;28;45315;-68
2022/05/12 00:12:43;;;;;;;;;3.00;3.00;;;;;20.26;50.91;101235.41;4981731;28;45453;-70
2022/05/12 00:15:17;;;;;;;;;4.67;4.00;;;;;20.18;51.09;101237.38;4998876;28;46495;-70
2022/05/12 00:17:44;;;;;;;;;3.33;3.00;;;;;20.15;51.08;101243.19;4998858;28;45415;-70
2022/05/12 00:20:11;;;;;;;;;4.00;3.00;;;;;20.07;51.30;101241.47;4999396;28;45252;-70
2022/05/12 00:22:40;;;;;;;;;4.00;3.00;;;;;20.14;51.04;101249.59;4999166;28;45520;-70
2022/05/12 00:25:13;;;;;;;;;3.33;2.00;;;;;20.10;51.28;101267.22;4998557;28;46594;-69
2022/05/12 00:27:39;;;;;;;;;4.00;3.00;;;;;20.09;51.57;101252.91;4998781;28;46124;-69
2022/05/12 00:30:09;;;;;;;;;2.00;2.00;;;;;20.09;51.52;101261.00;4981209;28;45490;-69
2022/05/12 00:32:38;;;;;;;;;3.00;2.67;;;;;19.86;51.32;101228.81;4999170;28;45496;-70
2022/05/12 00:35:06;;;;;;;;;4.67;4.00;;;;;19.99;51.48;101271.25;4998854;28;45701;-69
2022/05/12 00:37:31;;;;;;;;;3.67;2.00;;;;;19.93;51.77;101277.44;4998703;28;45286;-70
2022/05/12 00:39:57;;;;;;;;;2.00;2.00;;;;;19.80;51.52;101244.91;4999062;28;45442;-69
2022/05/12 00:42:22;;;;;;;;;3.00;1.67;;;;;19.90;51.54;101272.44;4999244;28;45433;-69
2022/05/12 00:44:47;;;;;;;;;2.00;1.00;;;;;19.91;51.60;101274.09;4998670;28;46571;-69
2022/05/12 00:47:13;;;;;;;;;5.33;3.67;;;;;19.85;51.54;101277.56;4999084;28;45271;-69
2022/05/12 00:49:40;;;;;;;;;3.00;3.00;;;;;19.65;51.84;101262.00;4998931;28;45176;-69
2022/05/12 00:52:11;;;;;;;;;4.00;4.00;;;;;19.33;51.96;101200.41;4999162;28;45516;-70
2022/05/12 00:54:44;;;;;;;;;2.00;2.00;;;;;19.68;51.79;101291.31;4998398;28;46296;-71
2022/05/12 00:57:14;;;;;;;;;9.00;3.00;;;;;19.71;51.68;101290.91;4998302;28;45528;-69
2022/05/12 00:59:40;;;;;;;;;8.00;3.67;;;;;19.41;51.34;101246.13;4998433;28;45251;-68
2022/05/12 01:02:12;;;;;;;;;3.00;3.00;;;;;19.73;51.32;101301.50;4998915;28;45441;-70
2022/05/12 01:04:39;;;;;;;;;4.00;4.00;;;;;19.70;51.59;101304.59;4998209;28;46490;-69
2022/05/12 01:07:05;;;;;;;;;3.33;3.33;;;;;19.55;51.14;101268.72;4998323;28;45377;-68
2022/05/12 01:09:30;;;;;;;;;5.00;3.00;;;;;19.56;51.45;101271.22;4997135;28;45332;-69
2022/05/12 01:11:56;;;;;;;;;3.00;3.00;;;;;19.02;51.39;101187.16;4998608;28;45449;-68
2022/05/12 01:14:21;;;;;;;;;4.00;2.33;;;;;19.65;51.23;101307.03;4998091;28;45548;-69
2022/05/12 01:16:58;;;;;;;;;3.00;2.00;;;;;19.61;51.53;101306.56;4998464;28;45547;-69
2022/05/12 01:19:27;;;;;;;;;5.00;5.00;;;;;19.62;51.12;101305.56;4997069;28;45355;-69
2022/05/12 01:21:54;;;;;;;;;7.00;3.33;;;;;19.40;51.11;101266.03;4998349;28;45525;-69
2022/05/12 01:24:31;;;;;;;;;4.00;3.00;;;;;19.59;51.86;101308.59;4998229;28;45798;-71
2022/05/12 01:26:56;;;;;;;;;2.00;2.00;;;;;19.53;52.06;101309.34;4997872;28;45410;-68
2022/05/12 01:29:29;;;;;;;;;6.33;5.67;;;;;19.38;52.87;101313.91;5153728;27;45208;-68
2022/05/12 01:31:54;;;;;;;;;9.67;5.00;;;;;19.41;52.81;101322.44;5135668;27;45386;-68
2022/05/12 01:34:21;;;;;;;;;3.00;3.00;;;;;19.36;52.59;101314.09;5135860;27;45452;-69
2022/05/12 01:36:46;;;;;;;;;3.00;3.00;;;;;19.26;52.48;101296.56;5117215;27;45301;-69
2022/05/12 01:39:12;;;;;;;;;5.67;3.00;;;;;18.76;52.51;101220.81;5116741;27;48113;-69
2022/05/12 01:41:37;;;;;;;;;4.00;4.00;;;;;19.31;52.36;101329.19;5116871;27;45555;-69
2022/05/12 01:44:04;;;;;;;;;2.67;2.67;;;;;18.89;52.57;101257.91;5135598;27;45226;-69
2022/05/12 01:46:29;;;;;;;;;5.00;3.67;;;;;18.80;52.40;101248.22;5117189;27;45514;-68
2022/05/12 01:48:55;;;;;;;;;6.33;4.33;;;;;19.11;52.46;101316.25;5135427;27;45304;-69
2022/05/12 01:51:20;;;;;;;;;6.33;4.00;;;;;19.25;52.03;101333.47;5135845;27;45375;-69
2022/05/12 01:53:46;;;;;;;;;4.33;3.00;;;;;19.28;52.32;101337.63;5135771;27;45607;-69
2022/05/12 01:56:11;;;;;;;;;4.33;3.33;;;;;19.20;52.64;101335.84;5117247;27;45488;-68
2022/05/12 01:58:38;;;;;;;;;5.00;4.00;;;;;19.18;52.79;101342.47;5135263;27;45498;-69
2022/05/12 02:01:04;;;;;;;;;3.33;2.33;;;;;18.37;52.54;101204.06;5135285;27;45372;-69
2022/05/12 02:03:29;;;;;;;;;3.00;3.00;;;;;19.17;52.51;101346.19;5135486;27;45268;-69
2022/05/12 02:05:55;;;;;;;;;5.33;3.00;;;;;19.14;52.30;101347.38;5135550;27;45476;-68
2022/05/12 02:08:20;;;;;;;;;3.67;3.00;;;;;18.78;52.13;101293.38;5134746;27;46142;-69
2022/05/12 02:10:51;;;;;;;;;2.67;2.33;;;;;18.80;52.24;101315.56;5116571;27;45531;-69
2022/05/12 02:13:20;;;;;;;;;3.33;3.00;;;;;18.92;51.95;101351.84;5135372;27;45312;-68
2022/05/12 02:15:46;;;;;;;;;4.33;3.33;;;;;18.91;52.27;101352.84;5135393;27;45512;-67
2022/05/12 02:18:12;;;;;;;;;5.00;3.00;;;;;18.94;51.77;101367.81;5116171;27;48621;-69
2022/05/12 02:20:37;;;;;;;;;3.67;3.67;;;;;18.90;51.90;101367.34;5134888;27;45319;-69
2022/05/12 02:23:03;;;;;;;;;3.67;3.00;;;;;18.83;51.56;101375.34;5135166;27;45442;-68
2022/05/12 02:25:28;;;;;;;;;2.67;2.67;;;;;18.76;51.76;101371.69;5135403;27;45443;-68
2022/05/12 02:27:55;;;;;;;;;3.00;2.00;;;;;18.66;51.32;101367.56;5134398;27;45735;-69
2022/05/12 02:30:29;;;;;;;;;2.33;2.33;;;;;18.47;50.70;101341.97;5134827;27;45204;-69
2022/05/12 02:32:55;;;;;;;;;1.33;1.33;;;;;18.61;50.70;101372.63;5134656;27;45412;-70
2022/05/12 02:35:22;;;;;;;;;2.00;2.00;;;;;18.41;50.55;101337.28;5135200;27;45304;-69
2022/05/12 02:37:48;;;;;;;;;2.00;2.00;;;;;18.38;49.91;101337.63;5134788;27;47121;-70
2022/05/12 02:40:19;;;;;;;;;2.33;1.00;;;;;18.72;49.59;101388.38;5105759;27;45537;-68
2022/05/12 02:42:45;;;;;;;;;2.33;2.33;;;;;18.73;48.81;101395.44;5121355;27;45377;-69
2022/05/12 02:45:11;;;;;;;;;2.00;2.00;;;;;18.43;48.31;101352.25;5102102;27;45411;-68
2022/05/12 02:47:36;;;;;;;;;1.00;1.00;;;;;18.64;47.90;101388.47;5101914;27;46948;-69
2022/05/12 02:50:03;;;;;;;;;3.33;1.33;;;;;18.33;47.57;101343.56;5102012;27;45822;-69
2022/05/12 02:52:28;;;;;;;;;1.33;1.33;;;;;18.33;47.62;101346.25;5102200;27;45550;-69
2022/05/12 02:54:54;;;;;;;;;1.00;1.00;;;;;18.65;47.81;101395.53;5102223;27;45569;-69
2022/05/12 02:57:19;;;;;;;;;3.33;1.00;;;;;18.62;48.03;101390.44;5120348;27;45548;-68
2022/05/12 02:59:45;;;;;;;;;1.00;1.00;;;;;18.55;48.17;101391.19;5101767;27;45421;-69
2022/05/12 03:02:10;;;;;;;;;1.00;1.00;;;;;18.65;48.28;101400.91;5120499;27;45663;-69
2022/05/12 03:04:36;;;;;;;;;2.00;2.00;;;;;18.07;48.20;101302.72;5120748;27;45345;-71
2022/05/12 03:07:02;;;;;;;;;1.00;1.00;;;;;18.09;48.69;101312.28;5100761;27;46106;-69
2022/05/12 03:09:28;;;;;;;;;1.00;1.00;;;;;18.55;48.23;101387.66;5120074;27;45623;-69
2022/05/12 03:11:54;;;;;;;;;4.67;3.00;;;;;17.99;48.37;101292.84;5120576;27;45585;-69
2022/05/12 03:14:19;;;;;;;;;2.00;1.00;;;;;18.48;48.94;101384.84;5101848;27;45445;-69
2022/05/12 03:16:45;;;;;;;;;2.00;2.00;;;;;18.22;48.83;101335.94;5120176;27;45500;-69
2022/05/12 03:19:11;;;;;;;;;2.33;2.00;;;;;18.70;48.96;101420.91;5120390;27;45366;-69
2022/05/12 03:21:36;;;;;;;;;3.67;1.00;;;;;18.63;49.46;101416.44;5120313;27;45345;-70
2022/05/12 03:24:04;;;;;;;;;2.33;1.00;;;;;18.53;49.46;101409.38;5120429;27;45296;-69
2022/05/12 03:26:34;;;;;;;;;2.00;2.00;;;;;18.46;49.51;101396.81;5119779;27;45811;-70
2022/05/12 03:29:00;;;;;;;;;3.67;3.00;;;;;18.62;49.69;101414.69;5100846;27;45429;-69
2022/05/12 03:31:25;;;;;;;;;1.00;1.00;;;;;18.65;50.09;101419.78;5120386;27;45230;-70
2022/05/12 03:33:51;;;;;;;;;3.00;2.00;;;;;18.49;49.63;101391.06;5120252;27;45296;-67
2022/05/12 03:36:16;;;;;;;;;2.00;0.00;;;;;18.66;49.41;101422.28;5119609;27;45453;-67
2022/05/12 03:38:43;;;;;;;;;2.00;2.00;;;;;18.48;49.03;101406.41;5101359;27;45236;-68
2022/05/12 03:41:09;;;;;;;;;1.00;1.00;;;;;18.62;49.11;101422.75;5120172;27;45421;-68
2022/05/12 03:46:19;;;;;;;;;2.00;2.00;;;;;18.26;48.79;101358.78;5119492;27;45432;-68
2022/05/12 03:48:44;;;;;;;;;2.33;1.00;;;;;18.66;48.83;101424.13;5119629;27;45319;-68
2022/05/12 03:51:12;;;;;;;;;3.00;2.67;;;;;18.63;48.96;101422.66;5118661;27;45417;-68
2022/05/12 03:53:38;;;;;;;;;1.00;1.00;;;;;18.37;49.07;101396.03;5119837;27;45354;-68
2022/05/12 03:56:06;;;;;;;;;4.00;2.00;;;;;18.49;49.21;101428.78;5119271;27;45717;-69
2022/05/12 03:58:31;;;;;;;;;2.33;1.00;;;;;18.41;49.63;101418.88;5119133;27;45207;-71
2022/05/12 04:00:57;;;;;;;;;1.00;1.00;;;;;18.15;49.31;101372.63;5119912;27;45465;-68
2022/05/12 04:03:23;;;;;;;;;1.00;1.00;;;;;18.46;49.55;101421.88;5119782;27;45338;-68
2022/05/12 04:05:49;;;;;;;;;1.00;1.00;;;;;18.50;49.28;101422.38;5119163;27;46609;-69
2022/05/12 04:08:14;;;;;;;;;3.67;2.67;;;;;18.34;49.25;101409.84;5100580;27;46028;-71
2022/05/12 04:10:40;;;;;;;;;1.33;1.33;;;;;18.41;49.61;101439.56;5100667;27;45331;-69
2022/05/12 04:13:07;;;;;;;;;7.00;4.00;;;;;18.03;49.78;101379.44;5119714;27;45729;-68
2022/05/12 04:15:32;;;;;;;;;4.33;2.67;;;;;18.37;49.76;101431.03;5119023;27;45919;-68
2022/05/12 04:18:00;;;;;;;;;2.00;2.00;;;;;18.34;49.87;101446.69;5119099;27;45307;-69
2022/05/12 04:20:28;;;;;;;;;1.67;1.33;;;;;18.05;49.79;101410.53;5119150;27;45507;-69
2022/05/12 04:22:53;;;;;;;;;3.33;1.33;;;;;17.81;50.17;101376.50;5119375;27;45362;-67
2022/05/12 04:25:20;;;;;;;;;2.00;2.00;;;;;18.31;50.26;101450.59;5118428;27;45584;-68
2022/05/12 04:27:45;;;;;;;;;1.00;1.00;;;;;18.29;50.28;101458.00;5118455;27;45255;-69
2022/05/12 04:30:14;;;;;;;;;3.33;2.00;;;;;18.24;50.20;101453.16;5118965;27;45508;-69
2022/05/12 04:32:40;;;;;;;;;2.67;2.67;;;;;18.15;50.44;101442.59;5100513;27;45405;-69
2022/05/12 04:35:13;;;;;;;;;2.00;1.00;;;;;17.81;50.37;101395.34;5118676;27;45466;-68
2022/05/12 04:37:44;;;;;;;;;2.00;2.00;;;;;18.19;50.68;101450.13;5118909;27;45272;-68
2022/05/12 04:40:13;;;;;;;;;2.33;1.00;;;;;18.22;50.73;101454.34;5118730;27;45452;-69
2022/05/12 04:42:39;;;;;;;;;3.33;1.67;;;;;18.24;50.53;101468.47;5099991;27;45589;-68
2022/05/12 04:45:06;;;;;;;;;3.33;3.33;;;;;18.15;50.67;101450.66;5118132;27;45741;-68
2022/05/12 04:47:33;;;;;;;;;3.67;3.67;;;;;18.22;50.22;101457.88;5100048;27;45414;-70
2022/05/12 04:49:59;;;;;;;;;4.00;3.00;;;;;18.00;50.91;101433.59;5114067;27;45326;-69
2022/05/12 04:52:27;;;;;;;;;3.00;2.00;;;;;18.12;50.69;101454.56;5102689;27;45637;-68
2022/05/12 04:54:55;;;;;;;;;4.00;2.67;;;;;18.05;50.75;101444.69;5099764;27;46405;-69
2022/05/12 04:57:22;;;;;;;;;2.33;2.33;;;;;18.03;51.08;101450.25;5118213;27;45342;-68
2022/05/12 04:59:51;;;;;;;;;3.67;1.00;;;;;18.15;51.00;101464.13;5118376;27;45281;-69
2022/05/12 05:02:17;;;;;;;;;5.00;3.00;;;;;18.25;50.42;101475.53;5100078;27;46963;-69
2022/05/12 05:04:43;;;;;;;;;2.33;2.33;;;;;18.23;50.51;101482.94;5097518;27;45343;-69
2022/05/12 05:07:10;;;;;;;;;3.00;2.00;;;;;17.83;50.38;101414.84;5102218;27;45501;-69
2022/05/12 05:09:36;;;;;;;;;5.00;4.00;;;;;18.16;50.81;101465.81;5097714;27;45820;-69
2022/05/12 05:12:02;;;;;;;;;2.33;1.00;;;;;17.15;50.69;101305.19;5098443;27;45330;-69
2022/05/12 05:14:27;;;;;;;;;4.00;3.00;;;;;18.16;50.54;101469.34;5097029;27;45554;-68
2022/05/12 05:16:53;;;;;;;;;3.67;3.33;;;;;17.80;50.55;101415.19;5078958;27;45286;-69
2022/05/12 05:19:18;;;;;;;;;2.67;1.67;;;;;18.20;50.63;101485.97;5078934;27;45439;-68
2022/05/12 05:21:44;;;;;;;;;3.33;3.33;;;;;18.24;50.67;101487.31;5090630;27;45638;-68
2022/05/12 05:24:10;;;;;;;;;2.67;2.33;;;;;18.24;50.66;101495.38;5117739;27;45802;-70
2022/05/12 05:26:35;;;;;;;;;4.00;4.00;;;;;18.01;50.84;101462.16;5118006;27;45501;-69
2022/05/12 05:29:01;;;;;;;;;4.67;2.00;;;;;18.04;51.13;101475.31;5117451;27;45547;-68
2022/05/12 05:31:27;;;;;;;;;4.67;4.00;;;;;18.18;50.88;101491.53;5095493;27;45588;-69
2022/05/12 05:33:53;;;;;;;;;3.33;3.00;;;;;18.14;50.75;101492.06;5096846;27;45933;-69
2022/05/12 05:36:18;;;;;;;;;4.33;4.33;;;;;18.24;50.84;101511.53;5078655;27;45666;-68
2022/05/12 05:38:45;;;;;;;;;5.33;1.67;;;;;18.03;51.09;101471.78;5097683;27;45337;-68
2022/05/12 05:41:11;;;;;;;;;7.67;5.33;;;;;17.67;51.05;101412.19;5080132;27;45555;-69
2022/05/12 05:43:39;;;;;;;;;4.00;2.67;;;;;18.34;50.78;101517.53;5097070;27;45568;-69
2022/05/12 05:46:05;;;;;;;;;6.00;3.33;;;;;18.01;50.34;101456.78;5097145;27;45446;-68
2022/05/12 05:48:31;;;;;;;;;4.67;3.67;;;;;18.40;50.48;101521.38;5097580;27;45432;-71
2022/05/12 05:53:41;;;;;;;;;3.67;3.33;;;;;18.55;50.10;101542.00;5097141;27;45880;-66
2022/05/12 05:56:15;;;;;;;;;5.00;3.33;;;;;18.61;50.69;101544.97;5078510;27;45459;-67
2022/05/12 05:58:44;;;;;;;;;2.33;2.33;;;;;18.60;50.01;101543.31;5102089;27;45544;-69
2022/05/12 06:01:10;;;;;;;;;5.00;4.00;;;;;18.67;50.00;101541.63;5117031;27;45509;-69
2022/05/12 06:03:37;;;;;;;;;5.67;4.67;;;;;18.06;50.02;101433.75;5106635;27;45970;-67
2022/05/12 06:06:02;;;;;;;;;4.00;4.00;;;;;18.98;49.44;101572.06;5096462;27;45295;-69
2022/05/12 06:08:28;;;;;;;;;3.67;3.67;;;;;19.26;49.29;101571.53;5102328;27;45581;-68
2022/05/12 06:10:53;;;;;;;;;6.67;4.33;;;;;19.64;48.05;101531.97;5110392;27;45451;-68
2022/05/12 06:13:19;;;;;;;;;1.67;1.67;;;;;20.62;46.18;101580.25;5112694;27;46189;-69
2022/05/12 06:15:45;;;;;;;;;2.00;2.00;;;;;21.34;44.71;101568.56;5119858;27;45228;-68
2022/05/12 06:18:16;;;;;;;;;6.67;5.00;;;;;22.06;43.27;101566.44;5119117;27;45441;-69
2022/05/12 06:20:43;;;;;;;;;3.00;3.00;;;;;22.68;41.07;101535.63;5105528;27;45494;-68
2022/05/12 06:23:11;;;;;;;;;7.33;3.00;;;;;23.71;40.14;101579.63;5120411;27;45659;-69
2022/05/12 06:25:37;;;;;;;;;3.00;3.00;;;;;24.35;38.00;101562.56;5107798;27;45442;-69
2022/05/12 06:28:03;;;;;;;;;7.00;5.00;;;;;24.97;36.91;101569.16;5099943;27;45470;-67
2022/05/12 06:30:29;;;;;;;;;5.00;5.00;;;;;25.53;35.90;101570.22;5099810;27;45414;-68
2022/05/12 06:32:56;;;;;;;;;5.00;4.33;;;;;26.11;34.94;101572.63;5119432;27;45503;-70
2022/05/12 06:35:23;;;;;;;;;3.00;3.00;;;;;26.65;33.92;101569.06;5120145;27;45384;-69
2022/05/12 06:37:49;;;;;;;;;4.00;3.00;;;;;27.13;32.72;101579.09;5119551;27;45484;-69
2022/05/12 06:40:15;;;;;;;;;2.00;2.00;;;;;27.48;32.43;101571.81;5119638;27;45623;-69
2022/05/12 06:42:41;;;;;;;;;6.00;3.67;;;;;27.86;31.80;101565.09;5119417;27;46678;-70
2022/05/12 06:45:10;;;;;;;;;3.00;3.00;;;;;28.19;30.13;101573.47;5120333;27;45464;-70
2022/05/12 06:47:35;;;;;;;;;3.33;2.00;;;;;28.00;29.57;101503.59;5120411;27;45389;-71
2022/05/12 06:50:03;;;;;;;;;2.33;2.00;;;;;28.24;29.42;101548.16;5120399;27;45390;-70
2022/05/12 06:52:30;;;;;;;;;2.00;2.00;;;;;28.33;30.05;101582.28;5120195;27;46534;-69
2022/05/12 06:54:56;;;;;;;;;3.00;3.00;;;;;27.55;29.33;101463.25;5095017;27;45860;-68
2022/05/12 06:57:27;;;;;;;;;3.67;3.33;;;;;27.85;29.59;101555.22;5099581;27;45311;-69
2022/05/12 06:59:53;;;;;;;;;3.00;2.00;;;;;27.81;29.69;101576.72;5099903;27;45478;-69
2022/05/12 07:02:18;;;;;;;;;6.00;4.00;;;;;28.02;29.79;101582.63;5119804;27;45678;-68
2022/05/12 07:04:45;;;;;;;;;6.33;3.67;;;;;28.34;28.92;101580.38;5119873;27;45437;-68
2022/05/12 07:07:12;;;;;;;;;5.00;5.00;;;;;28.69;27.82;101583.81;5101675;27;45866;-68
2022/05/12 07:09:38;;;;;;;;;5.33;3.33;;;;;28.74;28.25;101526.44;5101448;27;45549;-68
2022/05/12 07:12:04;;;;;;;;;3.33;2.33;;;;;29.23;27.23;101551.41;5090333;27;48218;-68
2022/05/12 07:14:31;;;;;;;;;4.00;3.00;;;;;29.85;26.62;101581.50;5088208;27;45642;-69
2022/05/12 07:16:57;;;;;;;;;3.00;3.00;;;;;30.07;26.93;101584.28;5119821;27;45524;-69
2022/05/12 07:19:23;;;;;;;;;4.67;2.67;;;;;30.32;26.35;101586.53;5119658;27;45242;-70
2022/05/12 07:27:16;;;;;;;;;1.33;1.33;;;;;30.63;25.29;101491.69;5119501;27;45324;-67
2022/05/12 07:29:42;;;;;;;;;3.67;3.33;;;;;31.42;25.36;101576.19;5120061;27;45282;-67
2022/05/12 07:32:08;;;;;;;;;5.33;5.00;;;;;31.87;24.12;101575.72;5100693;27;46714;-68
2022/05/12 07:34:34;;;;;;;;;6.00;4.00;;;;;32.46;23.79;101580.16;5109374;27;45402;-68
2022/05/12 07:36:59;;;;;;;;;4.00;4.00;;;;;32.90;22.99;101577.81;5099173;27;45493;-68
2022/05/12 07:39:29;;;;;;;;;2.33;2.33;;;;;33.26;22.25;101578.69;5099726;27;45521;-68
2022/05/12 07:42:00;;;;;;;;;3.00;1.67;;;;;33.37;22.11;101574.84;5099082;27;45631;-70
2022/05/12 07:44:34;;;;;;;;;2.67;2.33;;;;;33.43;22.23;101562.69;5080763;27;45516;-68
2022/05/12 07:47:05;;;;;;;;;2.00;2.00;;;;;32.63;21.18;101437.56;5098921;27;45336;-67
2022/05/12 07:49:35;;;;;;;;;3.00;2.33;;;;;33.46;21.50;101575.13;5098839;27;45514;-68
2022/05/12 07:52:01;;;;;;;;;5.00;4.67;;;;;33.28;21.50;101546.16;5098895;27;45784;-68
2022/05/12 07:54:27;;;;;;;;;28.00;26.67;;;;;33.21;20.92;101564.88;5099499;27;45482;-69
2022/05/12 07:56:52;;;;;;;;;1.00;1.00;;;;;33.05;21.32;101568.75;5093056;27;45468;-68
2022/05/12 07:59:18;;;;;;;;;4.00;2.00;;;;;33.00;21.22;101579.75;5119285;27;45406;-69
2022/05/12 08:01:44;;;;;;;;;4.33;2.33;;;;;32.91;21.26;101563.78;5100305;27;47416;-68
2022/05/12 08:04:09;;;;;;;;;3.00;2.00;;;;;32.84;21.02;101581.63;5087299;27;45472;-68
2022/05/12 08:06:35;;;;;;;;;4.00;4.00;;;;;32.34;20.83;101520.66;5114564;27;45433;-69
2022/05/12 08:09:01;;;;;;;;;1.33;1.33;;;;;32.15;21.19;101516.69;5115887;27;45394;-71
2022/05/12 08:11:27;;;;;;;;;5.00;4.00;;;;;32.61;20.61;101583.75;5098274;27;46000;-68
2022/05/12 08:13:53;;;;;;;;;1.33;1.33;;;;;32.46;21.39;101588.41;5098098;27;45351;-68
2022/05/12 08:16:21;;;;;;;;;1.67;1.67;;;;;31.92;21.64;101523.47;5085038;27;45422;-68
2022/05/12 08:18:49;;;;;;;;;2.00;2.00;;;;;31.92;21.59;101567.50;5119016;27;45257;-69
2022/05/12 08:21:16;;;;;;;;;2.00;2.00;;;;;31.74;21.96;101592.69;5099579;27;47170;-68
2022/05/12 08:23:42;;;;;;;;;4.00;1.33;;;;;31.66;22.30;101552.75;5118492;27;45394;-67
2022/05/12 08:26:08;;;;;;;;;2.33;1.00;;;;;32.06;21.91;101606.38;5099872;27;45511;-70
2022/05/12 08:28:33;;;;;;;;;6.67;6.67;;;;;32.06;21.53;101598.94;5108314;27;45565;-69
2022/05/12 08:30:59;;;;;;;;;3.00;2.00;;;;;32.02;21.78;101605.22;5111000;27;46791;-68
2022/05/12 08:33:25;;;;;;;;;1.00;1.00;;;;;32.14;21.42;101603.09;5118503;27;45395;-69
2022/05/12 08:35:51;;;;;;;;;4.00;4.00;;;;;32.13;22.05;101584.09;5118744;27;45474;-68
2022/05/12 08:38:18;;;;;;;;;1.00;1.00;;;;;32.26;21.55;101578.13;5117690;27;45514;-69
2022/05/12 08:41:02;;;;;;;;;2.00;2.00;;;;;32.71;21.44;101599.50;5099742;27;46413;-69
2022/05/12 08:43:40;;;;;;;;;0.00;0.00;;;;;32.62;20.28;101598.34;5100033;27;45358;-69
2022/05/12 08:46:10;;;;;;;;;1.67;1.00;;;;;32.51;20.77;101553.47;5100112;27;45311;-69
2022/05/12 08:48:41;;;;;;;;;0.67;0.67;;;;;32.72;20.41;101568.09;5118661;27;45528;-68
2022/05/12 08:51:09;;;;;;;;;1.33;0.00;;;;;32.71;20.21;101511.38;5118397;27;45889;-69
2022/05/12 08:54:12;;;;;;;;;5.33;4.33;;;;;33.42;19.64;101574.81;5119016;27;45395;-68
2022/05/12 08:56:37;;;;;;;;;1.00;1.00;;;;;33.76;19.82;101593.53;5081888;27;45637;-69
2022/05/12 08:59:03;;;;;;;;;3.67;1.67;;;;;34.06;19.89;101598.22;5099838;27;45197;-69
2022/05/12 09:02:14;;;;;;;;;0.00;0.00;;;;;34.36;18.49;101589.00;5098976;27;46534;-70
2022/05/12 09:05:00;;;;;;;;;4.67;3.00;;;;;34.45;19.54;101598.38;5014420;28;45299;-69
2022/05/12 09:07:36;;;;;;;;;1.67;1.67;;;;;34.25;18.64;101515.63;5118646;27;45257;-68
2022/05/12 09:10:01;;;;;;;;;1.00;1.00;;;;;34.93;18.96;101587.59;5118337;27;45220;-68
2022/05/12 09:12:45;;;;;;;;;2.67;1.33;;;;;35.08;18.79;101579.22;5118004;27;45522;-68
2022/05/12 09:15:22;;;;;;;;;2.33;1.67;;;;;34.75;18.39;101581.63;5118220;27;45279;-68
2022/05/12 09:18:05;;;;;;;;;4.33;3.00;;;;;34.29;18.80;101586.53;5118214;27;45280;-67
2022/05/12 09:20:35;;;;;;;;;2.67;2.67;;;;;34.00;19.68;101583.56;5119007;27;45428;-70
2022/05/12 09:23:02;;;;;;;;;3.00;2.00;;;;;33.90;19.46;101586.38;5117976;27;46917;-69
2022/05/12 09:25:31;;;;;;;;;3.33;3.33;;;;;33.86;19.73;101590.81;5117891;27;45336;-69
2022/05/12 09:28:00;;;;;;;;;10.00;9.67;;;;;33.57;19.91;101580.34;5117750;27;45329;-68
2022/05/12 09:30:32;;;;;;;;;1.33;1.33;;;;;33.27;20.12;101585.84;5118481;27;45503;-70
2022/05/12 09:32:59;;;;;;;;;2.00;2.00;;;;;32.87;20.22;101576.44;5117852;27;46193;-71
2022/05/12 09:35:26;;;;;;;;;2.00;2.00;;;;;32.12;20.49;101539.25;5098905;27;45362;-68
2022/05/12 09:37:53;;;;;;;;;3.67;3.00;;;;;31.97;21.33;101585.94;5099310;27;45476;-69
2022/05/12 09:40:31;;;;;;;;;8.00;8.00;;;;;31.61;21.87;101584.84;5118043;27;45387;-70
2022/05/12 09:43:00;;;;;;;;;3.00;2.67;;;;;31.10;22.07;101587.97;5099238;27;47656;-69
2022/05/12 09:45:25;;;;;;;;;4.00;2.00;;;;;30.93;23.07;101580.94;5117687;27;45428;-70
2022/05/12 09:48:07;;;;;;;;;3.00;3.00;;;;;30.82;23.08;101566.25;5099512;27;45350;-69
2022/05/12 09:50:33;;;;;;;;;1.33;1.33;;;;;30.73;22.75;101557.69;5101667;27;45272;-67
2022/05/12 09:53:01;;;;;;;;;4.00;1.00;;;;;30.57;23.08;101577.78;5121882;27;45474;-68
2022/05/12 09:55:29;;;;;;;;;1.00;1.00;;;;;30.43;22.93;101588.31;5121342;27;45406;-69
2022/05/12 09:57:59;;;;;;;;;2.00;2.00;;;;;29.69;23.26;101500.13;5102789;27;45507;-68
2022/05/12 10:00:31;;;;;;;;;6.00;4.33;;;;;29.88;23.54;101589.19;5121489;27;45334;-69
2022/05/12 10:09:24;;;;;;;;;1.00;1.00;;;;;28.74;25.07;101577.63;5121191;27;45291;-68
2022/05/12 10:12:07;;;;;;;;;2.67;2.00;;;;;28.70;25.58;101571.81;5121418;27;45265;-67
2022/05/12 10:14:50;;;;;;;;;2.00;2.00;;;;;28.61;25.94;101567.78;5121217;27;46263;-69
2022/05/12 10:17:37;;;;;;;;;4.00;4.00;;;;;28.49;25.74;101564.28;5120944;27;45292;-68
2022/05/12 10:20:10;;;;;;;;;1.33;1.00;;;;;28.31;26.18;101564.44;5121469;27;45571;-69
2022/05/12 10:22:42;;;;;;;;;3.00;1.00;;;;;28.26;26.08;101561.63;5121037;27;45544;-69
2022/05/12 10:25:32;;;;;;;;;1.00;1.00;;;;;28.12;26.00;101559.09;5120494;27;45892;-70
2022/05/12 10:28:32;;;;;;;;;3.00;2.00;;;;;28.02;26.99;101558.88;5119935;27;45604;-67
2022/05/12 10:31:24;;;;;;;;;5.33;3.00;;;;;28.01;26.98;101570.88;5120359;27;45307;-68
2022/05/12 10:34:18;;;;;;;;;3.67;2.67;;;;;27.74;27.13;101558.78;5084900;27;45486;-69
2022/05/12 10:37:08;;;;;;;;;2.67;1.00;;;;;27.63;26.94;101557.69;5101890;27;48711;-68
2022/05/12 10:39:37;;;;;;;;;1.67;1.00;;;;;27.48;27.49;101566.34;5101646;27;46444;-68
2022/05/12 10:42:23;;;;;;;;;0.00;0.00;;;;;27.28;27.79;101571.31;5120509;27;45307;-68
2022/05/12 10:45:01;;;;;;;;;7.67;7.00;;;;;27.19;27.57;101568.06;5120721;27;45551;-69
2022/05/12 10:48:00;;;;;;;;;2.00;2.00;;;;;26.98;28.17;101560.38;5120418;27;45903;-69
2022/05/12 10:50:45;;;;;;;;;4.00;1.67;;;;;26.85;28.17;101555.16;5101740;27;45491;-70
2022/05/12 10:53:23;;;;;;;;;2.00;2.00;;;;;26.76;28.90;101559.25;5101711;27;45359;-69
2022/05/12 10:56:04;;;;;;;;;5.00;3.00;;;;;26.67;28.74;101547.84;5120682;27;45542;-68
2022/05/12 10:58:39;;;;;;;;;2.00;1.00;;;;;26.61;28.32;101551.47;5119972;27;45629;-68
2022/05/12 11:01:15;;;;;;;;;0.33;0.33;;;;;26.46;28.50;101549.19;5119752;27;45367;-68
2022/05/12 11:03:57;;;;;;;;;3.00;2.67;;;;;26.44;28.80;101558.66;5120054;27;45413;-68
2022/05/12 11:06:32;;;;;;;;;5.33;4.00;;;;;26.45;28.69;101550.25;5102060;27;45598;-69
2022/05/12 11:09:06;;;;;;;;;1.00;1.00;;;;;26.30;28.48;101528.78;5119631;27;46587;-68
2022/05/12 11:11:36;;;;;;;;;3.00;2.00;;;;;26.30;28.35;101545.13;5101158;27;45303;-68
2022/05/12 11:14:19;;;;;;;;;4.67;3.67;;;;;26.17;28.97;101542.56;5119959;27;45293;-69
2022/05/12 11:17:11;;;;;;;;;3.00;1.67;;;;;26.16;28.83;101543.63;5101636;27;45326;-69
2022/05/12 11:19:43;;;;;;;;;1.33;1.00;;;;;25.95;29.35;101508.66;5101044;27;45553;-68
2022/05/12 11:22:30;;;;;;;;;2.00;0.00;;;;;26.29;28.93;101551.66;5119788;27;45497;-69
2022/05/12 11:25:13;;;;;;;;;2.00;2.00;;;;;26.17;29.28;101542.56;5119638;27;45262;-69
2022/05/12 11:27:44;;;;;;;;;2.67;2.67;;;;;26.29;28.92;101546.19;5120078;27;45495;-71
2022/05/12 11:30:36;;;;;;;;;3.67;3.00;;;;;26.36;28.98;101549.69;5100647;27;48402;-68
2022/05/12 11:33:19;;;;;;;;;3.67;2.00;;;;;26.40;28.82;101551.97;5119727;27;45277;-70
2022/05/12 11:35:54;;;;;;;;;2.00;2.00;;;;;26.20;29.09;101547.56;5119328;27;45500;-68
2022/05/12 11:38:51;;;;;;;;;2.00;1.67;;;;;26.18;29.57;101549.69;5119941;27;45472;-69
2022/05/12 11:41:19;;;;;;;;;2.67;2.00;;;;;26.25;29.31;101552.34;5094065;27;47658;-69
2022/05/12 11:46:50;;;;;;;;;2.00;2.00;;;;;26.20;29.13;101550.28;5119641;27;45297;-68
2022/05/12 11:49:42;;;;;;;;;1.67;1.67;;;;;26.19;29.51;101556.78;5119880;27;45369;-71
2022/05/12 11:52:37;;;;;;;;;2.00;2.00;;;;;25.72;29.54;101469.31;5118894;27;45562;-67
2022/05/12 11:55:27;;;;;;;;;1.00;1.00;;;;;26.21;29.25;101549.22;5119095;27;45571;-69